sensor_id;sensor_type;location;lat;lon;timestamp;P1;durP1;ratioP1;P2;durP2;ratioP2
45128;SDS011;35512;56.312;101.728;2022-12-19T00:01:33;0.90;;;0.90;;
45128;SDS011;35512;56.312;101.728;2022-12-19T00:04:04;0.90;;;0.90;;
45128;SDS011;35512;56.312;101.728;2022-12-19T00:06:36;1.00;;;0.90;;
45128;SDS011;35512;56.312;101.728;2022-12-19T00:09:10;1.00;;;0.90;;
45128;SDS011;35512;56.312;101.728;2022-12-19T00:11:40;0.80;;;0.80;;
45128;SDS011;35512;56.312;101.728;2022-12-19T00:14:10;0.90;;;0.90;;
45128;SDS011;35512;56.312;101.728;2022-12-19T00:16:39;0.85;;;0.85;;
45128;SDS011;35512;56.312;101.728;2022-12-19T00:19:09;1.00;;;0.90;;
45128;SDS011;35512;56.312;101.728;2022-12-19T00:21:38;1.00;;;0.90;;
45128;SDS011;35512;56.312;101.728;2022-12-19T00:24:08;1.00;;;0.90;;
45128;SDS011;35512;56.312;101.728;2022-12-19T00:26:48;0.80;;;0.80;;
45128;SDS011;35512;56.312;101.728;2022-12-19T00:29:17;0.90;;;0.90;;
45128;SDS011;35512;56.312;101.728;2022-12-19T00:31:48;1.00;;;0.90;;
45128;SDS011;35512;56.312;101.728;2022-12-19T00:34:17;0.93;;;0.90;;
45128;SDS011;35512;56.312;101.728;2022-12-19T00:36:46;0.90;;;0.90;;
45128;SDS011;35512;56.312;101.728;2022-12-19T00:39:16;1.00;;;0.90;;
45128;SDS011;35512;56.312;101.728;2022-12-19T00:41:45;0.95;;;0.90;;
45128;SDS011;35512;56.312;101.728;2022-12-19T00:44:14;0.80;;;0.80;;
45128;SDS011;35512;56.312;101.728;2022-12-19T00:46:44;1.00;;;0.90;;
45128;SDS011;35512;56.312;101.728;2022-12-19T00:49:19;0.90;;;0.90;;
45128;SDS011;35512;56.312;101.728;2022-12-19T00:51:48;1.00;;;0.90;;
45128;SDS011;35512;56.312;101.728;2022-12-19T00:54:17;1.00;;;0.90;;
45128;SDS011;35512;56.312;101.728;2022-12-19T00:56:46;0.93;;;0.90;;
45128;SDS011;35512;56.312;101.728;2022-12-19T00:59:15;0.95;;;0.90;;
45128;SDS011;35512;56.312;101.728;2022-12-19T01:01:56;0.90;;;0.90;;
45128;SDS011;35512;56.312;101.728;2022-12-19T01:04:26;1.00;;;0.90;;
45128;SDS011;35512;56.312;101.728;2022-12-19T01:06:56;0.90;;;0.90;;
45128;SDS011;35512;56.312;101.728;2022-12-19T01:09:32;1.10;;;1.00;;
45128;SDS011;35512;56.312;101.728;2022-12-19T01:12:03;0.80;;;0.80;;
45128;SDS011;35512;56.312;101.728;2022-12-19T01:14:54;1.00;;;0.90;;
45128;SDS011;35512;56.312;101.728;2022-12-19T01:17:30;1.00;;;0.90;;
45128;SDS011;35512;56.312;101.728;2022-12-19T01:20:12;0.90;;;0.90;;
45128;SDS011;35512;56.312;101.728;2022-12-19T01:22:46;1.00;;;0.90;;
45128;SDS011;35512;56.312;101.728;2022-12-19T01:25:15;0.80;;;0.80;;
45128;SDS011;35512;56.312;101.728;2022-12-19T01:27:44;1.00;;;0.90;;
45128;SDS011;35512;56.312;101.728;2022-12-19T01:30:12;0.90;;;0.90;;
45128;SDS011;35512;56.312;101.728;2022-12-19T01:32:43;0.80;;;0.80;;
45128;SDS011;35512;56.312;101.728;2022-12-19T01:35:12;1.00;;;0.90;;
45128;SDS011;35512;56.312;101.728;2022-12-19T01:40:18;0.90;;;0.90;;
45128;SDS011;35512;56.312;101.728;2022-12-19T01:42:48;0.90;;;0.90;;
45128;SDS011;35512;56.312;101.728;2022-12-19T01:45:25;0.90;;;0.85;;
45128;SDS011;35512;56.312;101.728;2022-12-19T01:48:13;0.90;;;0.90;;
45128;SDS011;35512;56.312;101.728;2022-12-19T01:50:59;0.80;;;0.80;;
45128;SDS011;35512;56.312;101.728;2022-12-19T01:53:42;0.90;;;0.90;;
45128;SDS011;35512;56.312;101.728;2022-12-19T01:56:16;0.80;;;0.80;;
45128;SDS011;35512;56.312;101.728;2022-12-19T01:58:50;1.00;;;0.90;;
45128;SDS011;35512;56.312;101.728;2022-12-19T02:01:36;1.00;;;0.90;;
45128;SDS011;35512;56.312;101.728;2022-12-19T02:04:22;1.08;;;0.95;;
45128;SDS011;35512;56.312;101.728;2022-12-19T02:06:58;0.90;;;0.90;;
45128;SDS011;35512;56.312;101.728;2022-12-19T02:09:45;1.00;;;0.90;;
45128;SDS011;35512;56.312;101.728;2022-12-19T02:12:25;1.00;;;0.90;;
45128;SDS011;35512;56.312;101.728;2022-12-19T02:15:00;0.90;;;0.90;;
45128;SDS011;35512;56.312;101.728;2022-12-19T02:34:52;0.90;;;0.90;;
45128;SDS011;35512;56.312;101.728;2022-12-19T02:37:29;1.00;;;0.90;;
45128;SDS011;35512;56.312;101.728;2022-12-19T02:42:49;1.00;;;0.90;;
45128;SDS011;35512;56.312;101.728;2022-12-19T02:45:32;1.00;;;0.90;;
45128;SDS011;35512;56.312;101.728;2022-12-19T02:48:04;0.95;;;0.90;;
45128;SDS011;35512;56.312;101.728;2022-12-19T02:50:42;0.80;;;0.80;;
45128;SDS011;35512;56.312;101.728;2022-12-19T02:53:17;0.80;;;0.80;;
45128;SDS011;35512;56.312;101.728;2022-12-19T02:56:03;0.95;;;0.90;;
45128;SDS011;35512;56.312;101.728;2022-12-19T02:59:13;0.88;;;0.88;;
45128;SDS011;35512;56.312;101.728;2022-12-19T03:01:48;0.80;;;0.80;;
45128;SDS011;35512;56.312;101.728;2022-12-19T03:10:17;0.80;;;0.80;;
45128;SDS011;35512;56.312;101.728;2022-12-19T03:15:59;0.95;;;0.90;;
45128;SDS011;35512;56.312;101.728;2022-12-19T03:18:31;0.85;;;0.85;;
45128;SDS011;35512;56.312;101.728;2022-12-19T03:23:43;0.80;;;0.80;;
45128;SDS011;35512;56.312;101.728;2022-12-19T03:26:20;0.90;;;0.90;;
45128;SDS011;35512;56.312;101.728;2022-12-19T03:32:10;0.90;;;0.90;;
45128;SDS011;35512;56.312;101.728;2022-12-19T03:34:43;0.80;;;0.80;;
45128;SDS011;35512;56.312;101.728;2022-12-19T03:37:23;0.88;;;0.88;;
45128;SDS011;35512;56.312;101.728;2022-12-19T03:39:59;0.80;;;0.80;;
45128;SDS011;35512;56.312;101.728;2022-12-19T03:42:31;0.90;;;0.90;;
45128;SDS011;35512;56.312;101.728;2022-12-19T03:45:21;0.80;;;0.80;;
45128;SDS011;35512;56.312;101.728;2022-12-19T03:47:57;0.80;;;0.80;;
45128;SDS011;35512;56.312;101.728;2022-12-19T03:50:31;0.80;;;0.80;;
45128;SDS011;35512;56.312;101.728;2022-12-19T03:53:31;0.80;;;0.80;;
45128;SDS011;35512;56.312;101.728;2022-12-19T03:59:04;0.80;;;0.80;;
45128;SDS011;35512;56.312;101.728;2022-12-19T04:01:37;0.80;;;0.80;;
45128;SDS011;35512;56.312;101.728;2022-12-19T04:04:09;0.80;;;0.80;;
45128;SDS011;35512;56.312;101.728;2022-12-19T04:06:40;0.80;;;0.80;;
45128;SDS011;35512;56.312;101.728;2022-12-19T04:09:11;0.80;;;0.80;;
45128;SDS011;35512;56.312;101.728;2022-12-19T04:11:52;0.80;;;0.80;;
45128;SDS011;35512;56.312;101.728;2022-12-19T04:14:32;0.80;;;0.80;;
45128;SDS011;35512;56.312;101.728;2022-12-19T04:17:07;0.80;;;0.80;;
45128;SDS011;35512;56.312;101.728;2022-12-19T04:19:50;0.80;;;0.80;;
45128;SDS011;35512;56.312;101.728;2022-12-19T04:22:26;0.80;;;0.80;;
45128;SDS011;35512;56.312;101.728;2022-12-19T04:25:05;0.80;;;0.80;;
45128;SDS011;35512;56.312;101.728;2022-12-19T04:27:39;0.80;;;0.80;;
45128;SDS011;35512;56.312;101.728;2022-12-19T04:30:12;0.80;;;0.80;;
45128;SDS011;35512;56.312;101.728;2022-12-19T04:32:43;0.80;;;0.80;;
45128;SDS011;35512;56.312;101.728;2022-12-19T04:35:13;0.80;;;0.80;;
45128;SDS011;35512;56.312;101.728;2022-12-19T04:37:42;0.80;;;0.80;;
45128;SDS011;35512;56.312;101.728;2022-12-19T04:40:11;0.80;;;0.80;;
45128;SDS011;35512;56.312;101.728;2022-12-19T04:42:41;0.70;;;0.70;;
45128;SDS011;35512;56.312;101.728;2022-12-19T04:45:09;0.80;;;0.80;;
45128;SDS011;35512;56.312;101.728;2022-12-19T04:47:39;0.80;;;0.80;;
45128;SDS011;35512;56.312;101.728;2022-12-19T04:50:08;0.80;;;0.80;;
45128;SDS011;35512;56.312;101.728;2022-12-19T04:52:37;0.80;;;0.80;;
45128;SDS011;35512;56.312;101.728;2022-12-19T04:55:06;0.80;;;0.80;;
45128;SDS011;35512;56.312;101.728;2022-12-19T04:57:35;0.80;;;0.80;;
45128;SDS011;35512;56.312;101.728;2022-12-19T05:00:05;0.70;;;0.70;;
45128;SDS011;35512;56.312;101.728;2022-12-19T05:02:36;0.70;;;0.70;;
45128;SDS011;35512;56.312;101.728;2022-12-19T05:05:06;0.75;;;0.75;;
45128;SDS011;35512;56.312;101.728;2022-12-19T05:07:35;0.70;;;0.70;;
45128;SDS011;35512;56.312;101.728;2022-12-19T05:10:04;0.80;;;0.80;;
45128;SDS011;35512;56.312;101.728;2022-12-19T05:12:34;0.80;;;0.80;;
45128;SDS011;35512;56.312;101.728;2022-12-19T05:15:03;0.80;;;0.80;;
45128;SDS011;35512;56.312;101.728;2022-12-19T05:17:32;0.80;;;0.80;;
45128;SDS011;35512;56.312;101.728;2022-12-19T05:20:02;0.70;;;0.70;;
45128;SDS011;35512;56.312;101.728;2022-12-19T05:22:31;0.80;;;0.80;;
45128;SDS011;35512;56.312;101.728;2022-12-19T05:25:00;0.70;;;0.70;;
45128;SDS011;35512;56.312;101.728;2022-12-19T05:27:29;0.70;;;0.70;;
45128;SDS011;35512;56.312;101.728;2022-12-19T05:29:58;0.70;;;0.70;;
45128;SDS011;35512;56.312;101.728;2022-12-19T05:32:29;0.80;;;0.80;;
45128;SDS011;35512;56.312;101.728;2022-12-19T05:34:59;0.77;;;0.77;;
45128;SDS011;35512;56.312;101.728;2022-12-19T05:37:28;0.70;;;0.70;;
45128;SDS011;35512;56.312;101.728;2022-12-19T05:39:57;0.70;;;0.70;;
45128;SDS011;35512;56.312;101.728;2022-12-19T05:42:26;0.80;;;0.80;;
45128;SDS011;35512;56.312;101.728;2022-12-19T05:44:55;0.70;;;0.70;;
45128;SDS011;35512;56.312;101.728;2022-12-19T05:47:24;0.70;;;0.70;;
45128;SDS011;35512;56.312;101.728;2022-12-19T05:49:53;0.70;;;0.70;;
45128;SDS011;35512;56.312;101.728;2022-12-19T05:52:22;0.70;;;0.70;;
45128;SDS011;35512;56.312;101.728;2022-12-19T05:54:51;0.70;;;0.70;;
45128;SDS011;35512;56.312;101.728;2022-12-19T05:57:20;0.70;;;0.70;;
45128;SDS011;35512;56.312;101.728;2022-12-19T05:59:50;0.70;;;0.70;;
45128;SDS011;35512;56.312;101.728;2022-12-19T06:02:19;0.80;;;0.80;;
45128;SDS011;35512;56.312;101.728;2022-12-19T06:04:48;0.70;;;0.70;;
45128;SDS011;35512;56.312;101.728;2022-12-19T06:07:17;0.80;;;0.80;;
45128;SDS011;35512;56.312;101.728;2022-12-19T06:09:47;0.80;;;0.80;;
45128;SDS011;35512;56.312;101.728;2022-12-19T06:12:16;0.80;;;0.80;;
45128;SDS011;35512;56.312;101.728;2022-12-19T06:14:45;0.70;;;0.70;;
45128;SDS011;35512;56.312;101.728;2022-12-19T06:17:14;0.70;;;0.70;;
45128;SDS011;35512;56.312;101.728;2022-12-19T06:19:43;0.70;;;0.70;;
45128;SDS011;35512;56.312;101.728;2022-12-19T06:22:12;0.70;;;0.70;;
45128;SDS011;35512;56.312;101.728;2022-12-19T06:24:41;0.80;;;0.80;;
45128;SDS011;35512;56.312;101.728;2022-12-19T06:27:10;0.80;;;0.80;;
45128;SDS011;35512;56.312;101.728;2022-12-19T06:29:39;0.70;;;0.70;;
45128;SDS011;35512;56.312;101.728;2022-12-19T06:32:07;0.80;;;0.80;;
45128;SDS011;35512;56.312;101.728;2022-12-19T06:34:37;0.70;;;0.70;;
45128;SDS011;35512;56.312;101.728;2022-12-19T06:37:26;0.70;;;0.70;;
45128;SDS011;35512;56.312;101.728;2022-12-19T06:39:55;0.70;;;0.70;;
45128;SDS011;35512;56.312;101.728;2022-12-19T06:42:23;0.70;;;0.70;;
45128;SDS011;35512;56.312;101.728;2022-12-19T06:44:53;0.70;;;0.70;;
45128;SDS011;35512;56.312;101.728;2022-12-19T06:47:23;0.80;;;0.80;;
45128;SDS011;35512;56.312;101.728;2022-12-19T06:49:52;0.70;;;0.70;;
45128;SDS011;35512;56.312;101.728;2022-12-19T06:52:21;0.80;;;0.80;;
45128;SDS011;35512;56.312;101.728;2022-12-19T06:54:50;0.70;;;0.70;;
45128;SDS011;35512;56.312;101.728;2022-12-19T06:57:19;0.70;;;0.70;;
45128;SDS011;35512;56.312;101.728;2022-12-19T06:59:48;0.70;;;0.70;;
45128;SDS011;35512;56.312;101.728;2022-12-19T07:02:23;0.70;;;0.70;;
45128;SDS011;35512;56.312;101.728;2022-12-19T07:05:02;0.80;;;0.80;;
45128;SDS011;35512;56.312;101.728;2022-12-19T07:07:34;0.70;;;0.70;;
45128;SDS011;35512;56.312;101.728;2022-12-19T07:10:03;0.70;;;0.70;;
45128;SDS011;35512;56.312;101.728;2022-12-19T07:12:35;0.70;;;0.70;;
45128;SDS011;35512;56.312;101.728;2022-12-19T07:15:04;0.75;;;0.75;;
45128;SDS011;35512;56.312;101.728;2022-12-19T07:17:33;0.80;;;0.80;;
45128;SDS011;35512;56.312;101.728;2022-12-19T07:20:02;0.80;;;0.80;;
45128;SDS011;35512;56.312;101.728;2022-12-19T07:22:32;0.70;;;0.70;;
45128;SDS011;35512;56.312;101.728;2022-12-19T07:25:03;0.70;;;0.70;;
45128;SDS011;35512;56.312;101.728;2022-12-19T07:27:33;0.80;;;0.80;;
45128;SDS011;35512;56.312;101.728;2022-12-19T07:30:03;0.75;;;0.75;;
45128;SDS011;35512;56.312;101.728;2022-12-19T07:32:34;0.70;;;0.70;;
45128;SDS011;35512;56.312;101.728;2022-12-19T07:35:04;0.70;;;0.70;;
45128;SDS011;35512;56.312;101.728;2022-12-19T07:37:34;0.70;;;0.70;;
45128;SDS011;35512;56.312;101.728;2022-12-19T07:40:03;0.70;;;0.70;;
45128;SDS011;35512;56.312;101.728;2022-12-19T07:42:32;0.70;;;0.70;;
45128;SDS011;35512;56.312;101.728;2022-12-19T07:45:01;0.70;;;0.70;;
45128;SDS011;35512;56.312;101.728;2022-12-19T07:47:30;0.80;;;0.80;;
45128;SDS011;35512;56.312;101.728;2022-12-19T07:50:01;0.70;;;0.70;;
45128;SDS011;35512;56.312;101.728;2022-12-19T07:52:36;0.80;;;0.80;;
45128;SDS011;35512;56.312;101.728;2022-12-19T07:55:07;0.70;;;0.70;;
45128;SDS011;35512;56.312;101.728;2022-12-19T07:57:36;0.80;;;0.80;;
45128;SDS011;35512;56.312;101.728;2022-12-19T08:00:06;0.70;;;0.70;;
45128;SDS011;35512;56.312;101.728;2022-12-19T08:02:39;0.75;;;0.75;;
45128;SDS011;35512;56.312;101.728;2022-12-19T08:05:09;0.73;;;0.73;;
45128;SDS011;35512;56.312;101.728;2022-12-19T08:07:38;0.70;;;0.70;;
45128;SDS011;35512;56.312;101.728;2022-12-19T08:10:08;0.80;;;0.80;;
45128;SDS011;35512;56.312;101.728;2022-12-19T08:12:39;0.80;;;0.80;;
45128;SDS011;35512;56.312;101.728;2022-12-19T08:15:09;0.80;;;0.80;;
45128;SDS011;35512;56.312;101.728;2022-12-19T08:17:38;0.70;;;0.70;;
45128;SDS011;35512;56.312;101.728;2022-12-19T08:20:08;0.80;;;0.80;;
45128;SDS011;35512;56.312;101.728;2022-12-19T08:22:40;0.80;;;0.80;;
45128;SDS011;35512;56.312;101.728;2022-12-19T08:25:09;0.80;;;0.80;;
45128;SDS011;35512;56.312;101.728;2022-12-19T08:27:39;0.70;;;0.70;;
45128;SDS011;35512;56.312;101.728;2022-12-19T08:30:12;0.80;;;0.80;;
45128;SDS011;35512;56.312;101.728;2022-12-19T08:32:42;0.70;;;0.70;;
45128;SDS011;35512;56.312;101.728;2022-12-19T08:35:12;0.80;;;0.80;;
45128;SDS011;35512;56.312;101.728;2022-12-19T08:37:41;0.80;;;0.80;;
45128;SDS011;35512;56.312;101.728;2022-12-19T08:40:10;0.80;;;0.80;;
45128;SDS011;35512;56.312;101.728;2022-12-19T08:42:40;0.80;;;0.80;;
45128;SDS011;35512;56.312;101.728;2022-12-19T08:45:08;0.80;;;0.80;;
45128;SDS011;35512;56.312;101.728;2022-12-19T08:47:37;0.80;;;0.80;;
45128;SDS011;35512;56.312;101.728;2022-12-19T08:50:06;0.80;;;0.80;;
45128;SDS011;35512;56.312;101.728;2022-12-19T08:52:35;0.80;;;0.80;;
45128;SDS011;35512;56.312;101.728;2022-12-19T08:55:04;0.80;;;0.80;;
45128;SDS011;35512;56.312;101.728;2022-12-19T08:57:33;0.80;;;0.80;;
45128;SDS011;35512;56.312;101.728;2022-12-19T09:00:04;0.80;;;0.80;;
45128;SDS011;35512;56.312;101.728;2022-12-19T09:02:36;0.80;;;0.80;;
45128;SDS011;35512;56.312;101.728;2022-12-19T09:05:05;0.80;;;0.80;;
45128;SDS011;35512;56.312;101.728;2022-12-19T09:07:54;0.80;;;0.80;;
45128;SDS011;35512;56.312;101.728;2022-12-19T09:10:23;0.80;;;0.80;;
45128;SDS011;35512;56.312;101.728;2022-12-19T09:12:52;0.80;;;0.80;;
45128;SDS011;35512;56.312;101.728;2022-12-19T09:15:24;0.80;;;0.80;;
45128;SDS011;35512;56.312;101.728;2022-12-19T09:17:54;0.80;;;0.80;;
45128;SDS011;35512;56.312;101.728;2022-12-19T09:20:23;0.80;;;0.80;;
45128;SDS011;35512;56.312;101.728;2022-12-19T09:22:52;0.80;;;0.80;;
45128;SDS011;35512;56.312;101.728;2022-12-19T09:25:22;0.80;;;0.80;;
45128;SDS011;35512;56.312;101.728;2022-12-19T09:27:51;0.80;;;0.80;;
45128;SDS011;35512;56.312;101.728;2022-12-19T09:30:40;0.80;;;0.80;;
45128;SDS011;35512;56.312;101.728;2022-12-19T09:33:09;0.80;;;0.80;;
45128;SDS011;35512;56.312;101.728;2022-12-19T09:35:47;0.80;;;0.80;;
45128;SDS011;35512;56.312;101.728;2022-12-19T09:38:23;0.80;;;0.80;;
45128;SDS011;35512;56.312;101.728;2022-12-19T09:43:29;0.80;;;0.80;;
45128;SDS011;35512;56.312;101.728;2022-12-19T09:48:47;0.80;;;0.80;;
45128;SDS011;35512;56.312;101.728;2022-12-19T09:54:10;0.80;;;0.80;;
45128;SDS011;35512;56.312;101.728;2022-12-19T09:56:42;0.80;;;0.80;;
45128;SDS011;35512;56.312;101.728;2022-12-19T09:59:18;0.80;;;0.80;;
45128;SDS011;35512;56.312;101.728;2022-12-19T10:04:49;0.80;;;0.80;;
45128;SDS011;35512;56.312;101.728;2022-12-19T10:07:43;0.80;;;0.80;;
45128;SDS011;35512;56.312;101.728;2022-12-19T10:22:50;0.80;;;0.80;;
45128;SDS011;35512;56.312;101.728;2022-12-19T10:25:27;0.80;;;0.80;;
45128;SDS011;35512;56.312;101.728;2022-12-19T10:31:14;0.80;;;0.80;;
45128;SDS011;35512;56.312;101.728;2022-12-19T10:33:54;0.80;;;0.80;;
45128;SDS011;35512;56.312;101.728;2022-12-19T10:36:30;0.80;;;0.80;;
45128;SDS011;35512;56.312;101.728;2022-12-19T10:39:30;0.80;;;0.80;;
45128;SDS011;35512;56.312;101.728;2022-12-19T10:45:18;0.80;;;0.80;;
45128;SDS011;35512;56.312;101.728;2022-12-19T10:47:49;0.80;;;0.80;;
45128;SDS011;35512;56.312;101.728;2022-12-19T10:50:25;0.80;;;0.80;;
45128;SDS011;35512;56.312;101.728;2022-12-19T10:58:09;0.80;;;0.80;;
45128;SDS011;35512;56.312;101.728;2022-12-19T11:00:45;0.80;;;0.80;;
45128;SDS011;35512;56.312;101.728;2022-12-19T11:03:23;0.80;;;0.80;;
45128;SDS011;35512;56.312;101.728;2022-12-19T11:05:53;0.80;;;0.80;;
45128;SDS011;35512;56.312;101.728;2022-12-19T11:08:26;0.80;;;0.80;;
45128;SDS011;35512;56.312;101.728;2022-12-19T11:13:53;0.80;;;0.80;;
45128;SDS011;35512;56.312;101.728;2022-12-19T11:16:42;0.80;;;0.80;;
45128;SDS011;35512;56.312;101.728;2022-12-19T11:19:35;0.80;;;0.80;;
45128;SDS011;35512;56.312;101.728;2022-12-19T11:22:26;0.80;;;0.80;;
45128;SDS011;35512;56.312;101.728;2022-12-19T11:25:21;0.80;;;0.80;;
45128;SDS011;35512;56.312;101.728;2022-12-19T11:28:22;0.80;;;0.80;;
45128;SDS011;35512;56.312;101.728;2022-12-19T11:34:12;0.80;;;0.80;;
45128;SDS011;35512;56.312;101.728;2022-12-19T11:36:44;0.80;;;0.80;;
45128;SDS011;35512;56.312;101.728;2022-12-19T11:44:47;0.90;;;0.90;;
45128;SDS011;35512;56.312;101.728;2022-12-19T11:47:45;0.90;;;0.90;;
45128;SDS011;35512;56.312;101.728;2022-12-19T11:50:23;0.93;;;0.90;;
45128;SDS011;35512;56.312;101.728;2022-12-19T11:55:48;0.80;;;0.80;;
45128;SDS011;35512;56.312;101.728;2022-12-19T11:58:18;0.80;;;0.80;;
45128;SDS011;35512;56.312;101.728;2022-12-19T12:03:59;0.80;;;0.80;;
45128;SDS011;35512;56.312;101.728;2022-12-19T12:06:46;0.80;;;0.80;;
45128;SDS011;35512;56.312;101.728;2022-12-19T12:12:30;0.90;;;0.90;;
45128;SDS011;35512;56.312;101.728;2022-12-19T12:15:27;0.80;;;0.80;;
45128;SDS011;35512;56.312;101.728;2022-12-19T12:21:41;0.80;;;0.80;;
45128;SDS011;35512;56.312;101.728;2022-12-19T12:27:42;0.80;;;0.80;;
45128;SDS011;35512;56.312;101.728;2022-12-19T12:40:41;0.80;;;0.80;;
45128;SDS011;35512;56.312;101.728;2022-12-19T12:46:11;0.80;;;0.80;;
45128;SDS011;35512;56.312;101.728;2022-12-19T12:51:13;0.80;;;0.80;;
45128;SDS011;35512;56.312;101.728;2022-12-19T12:53:44;0.80;;;0.80;;
45128;SDS011;35512;56.312;101.728;2022-12-19T12:56:15;0.80;;;0.80;;
45128;SDS011;35512;56.312;101.728;2022-12-19T13:04:02;0.80;;;0.80;;
45128;SDS011;35512;56.312;101.728;2022-12-19T13:06:41;0.80;;;0.80;;
45128;SDS011;35512;56.312;101.728;2022-12-19T13:09:21;0.80;;;0.80;;
45128;SDS011;35512;56.312;101.728;2022-12-19T13:14:47;0.80;;;0.80;;
45128;SDS011;35512;56.312;101.728;2022-12-19T13:23:04;0.80;;;0.80;;
45128;SDS011;35512;56.312;101.728;2022-12-19T13:25:49;1.00;;;0.90;;
45128;SDS011;35512;56.312;101.728;2022-12-19T13:43:14;0.80;;;0.80;;
45128;SDS011;35512;56.312;101.728;2022-12-19T13:46:02;0.80;;;0.80;;
45128;SDS011;35512;56.312;101.728;2022-12-19T13:51:10;0.80;;;0.80;;
45128;SDS011;35512;56.312;101.728;2022-12-19T13:53:41;0.80;;;0.80;;
45128;SDS011;35512;56.312;101.728;2022-12-19T13:56:11;0.80;;;0.80;;
45128;SDS011;35512;56.312;101.728;2022-12-19T13:58:51;0.80;;;0.80;;
45128;SDS011;35512;56.312;101.728;2022-12-19T14:01:26;0.80;;;0.80;;
45128;SDS011;35512;56.312;101.728;2022-12-19T14:03:57;0.90;;;0.90;;
45128;SDS011;35512;56.312;101.728;2022-12-19T14:06:44;0.80;;;0.80;;
45128;SDS011;35512;56.312;101.728;2022-12-19T14:09:31;0.80;;;0.80;;
45128;SDS011;35512;56.312;101.728;2022-12-19T14:12:27;0.80;;;0.80;;
45128;SDS011;35512;56.312;101.728;2022-12-19T14:15:38;0.80;;;0.80;;
45128;SDS011;35512;56.312;101.728;2022-12-19T14:26:56;0.80;;;0.80;;
45128;SDS011;35512;56.312;101.728;2022-12-19T14:29:50;0.80;;;0.80;;
45128;SDS011;35512;56.312;101.728;2022-12-19T14:32:41;0.80;;;0.80;;
45128;SDS011;35512;56.312;101.728;2022-12-19T14:35:37;0.80;;;0.80;;
45128;SDS011;35512;56.312;101.728;2022-12-19T14:38:33;0.80;;;0.80;;
45128;SDS011;35512;56.312;101.728;2022-12-19T14:44:14;0.80;;;0.80;;
45128;SDS011;35512;56.312;101.728;2022-12-19T14:47:39;0.80;;;0.80;;
45128;SDS011;35512;56.312;101.728;2022-12-19T14:53:16;0.80;;;0.80;;
45128;SDS011;35512;56.312;101.728;2022-12-19T14:56:16;0.80;;;0.80;;
45128;SDS011;35512;56.312;101.728;2022-12-19T14:59:27;0.80;;;0.80;;
45128;SDS011;35512;56.312;101.728;2022-12-19T15:02:25;0.90;;;0.90;;
45128;SDS011;35512;56.312;101.728;2022-12-19T15:05:05;0.90;;;0.90;;
45128;SDS011;35512;56.312;101.728;2022-12-19T15:07:40;0.80;;;0.80;;
45128;SDS011;35512;56.312;101.728;2022-12-19T15:16:22;0.80;;;0.80;;
45128;SDS011;35512;56.312;101.728;2022-12-19T15:18:57;0.88;;;0.88;;
45128;SDS011;35512;56.312;101.728;2022-12-19T15:21:28;0.80;;;0.80;;
45128;SDS011;35512;56.312;101.728;2022-12-19T15:23:57;0.80;;;0.80;;
45128;SDS011;35512;56.312;101.728;2022-12-19T15:26:32;0.80;;;0.80;;
45128;SDS011;35512;56.312;101.728;2022-12-19T15:29:05;0.88;;;0.88;;
45128;SDS011;35512;56.312;101.728;2022-12-19T15:31:46;0.80;;;0.80;;
45128;SDS011;35512;56.312;101.728;2022-12-19T15:37:12;0.90;;;0.90;;
45128;SDS011;35512;56.312;101.728;2022-12-19T15:39:43;0.88;;;0.88;;
45128;SDS011;35512;56.312;101.728;2022-12-19T15:42:22;0.80;;;0.80;;
45128;SDS011;35512;56.312;101.728;2022-12-19T15:44:52;0.80;;;0.80;;
45128;SDS011;35512;56.312;101.728;2022-12-19T15:50:00;0.80;;;0.80;;
45128;SDS011;35512;56.312;101.728;2022-12-19T15:52:38;0.80;;;0.80;;
45128;SDS011;35512;56.312;101.728;2022-12-19T15:55:11;0.80;;;0.80;;
45128;SDS011;35512;56.312;101.728;2022-12-19T15:57:43;0.80;;;0.80;;
45128;SDS011;35512;56.312;101.728;2022-12-19T16:00:17;0.80;;;0.80;;
45128;SDS011;35512;56.312;101.728;2022-12-19T16:02:53;0.80;;;0.80;;
45128;SDS011;35512;56.312;101.728;2022-12-19T16:05:43;0.80;;;0.80;;
45128;SDS011;35512;56.312;101.728;2022-12-19T16:08:14;0.80;;;0.80;;
45128;SDS011;35512;56.312;101.728;2022-12-19T16:10:47;0.80;;;0.80;;
45128;SDS011;35512;56.312;101.728;2022-12-19T16:13:28;0.80;;;0.80;;
45128;SDS011;35512;56.312;101.728;2022-12-19T16:16:02;0.90;;;0.90;;
45128;SDS011;35512;56.312;101.728;2022-12-19T16:18:41;0.80;;;0.80;;
45128;SDS011;35512;56.312;101.728;2022-12-19T16:21:21;0.80;;;0.80;;
45128;SDS011;35512;56.312;101.728;2022-12-19T16:24:00;0.80;;;0.80;;
45128;SDS011;35512;56.312;101.728;2022-12-19T16:29:03;0.80;;;0.80;;
45128;SDS011;35512;56.312;101.728;2022-12-19T16:31:33;0.80;;;0.80;;
45128;SDS011;35512;56.312;101.728;2022-12-19T16:34:04;0.80;;;0.80;;
45128;SDS011;35512;56.312;101.728;2022-12-19T16:36:43;0.80;;;0.80;;
45128;SDS011;35512;56.312;101.728;2022-12-19T16:39:12;0.85;;;0.85;;
45128;SDS011;35512;56.312;101.728;2022-12-19T16:41:42;0.80;;;0.80;;
45128;SDS011;35512;56.312;101.728;2022-12-19T16:44:16;0.80;;;0.80;;
45128;SDS011;35512;56.312;101.728;2022-12-19T16:46:50;0.90;;;0.90;;
45128;SDS011;35512;56.312;101.728;2022-12-19T16:49:20;0.80;;;0.80;;
45128;SDS011;35512;56.312;101.728;2022-12-19T16:51:50;0.80;;;0.80;;
45128;SDS011;35512;56.312;101.728;2022-12-19T16:54:19;0.80;;;0.80;;
45128;SDS011;35512;56.312;101.728;2022-12-19T16:56:49;0.80;;;0.80;;
45128;SDS011;35512;56.312;101.728;2022-12-19T16:59:20;0.80;;;0.80;;
45128;SDS011;35512;56.312;101.728;2022-12-19T17:01:55;0.80;;;0.80;;
45128;SDS011;35512;56.312;101.728;2022-12-19T17:04:26;0.80;;;0.80;;
45128;SDS011;35512;56.312;101.728;2022-12-19T17:06:58;0.80;;;0.80;;
45128;SDS011;35512;56.312;101.728;2022-12-19T17:09:27;0.80;;;0.80;;
45128;SDS011;35512;56.312;101.728;2022-12-19T17:11:56;0.80;;;0.80;;
45128;SDS011;35512;56.312;101.728;2022-12-19T17:14:28;0.80;;;0.80;;
45128;SDS011;35512;56.312;101.728;2022-12-19T17:17:01;0.90;;;0.90;;
45128;SDS011;35512;56.312;101.728;2022-12-19T17:19:32;0.90;;;0.90;;
45128;SDS011;35512;56.312;101.728;2022-12-19T17:22:13;0.82;;;0.82;;
45128;SDS011;35512;56.312;101.728;2022-12-19T17:24:44;0.95;;;0.90;;
45128;SDS011;35512;56.312;101.728;2022-12-19T17:27:13;0.95;;;0.90;;
45128;SDS011;35512;56.312;101.728;2022-12-19T17:29:44;0.90;;;0.90;;
45128;SDS011;35512;56.312;101.728;2022-12-19T17:32:14;0.90;;;0.90;;
45128;SDS011;35512;56.312;101.728;2022-12-19T17:34:50;0.80;;;0.80;;
45128;SDS011;35512;56.312;101.728;2022-12-19T17:37:20;0.90;;;0.90;;
45128;SDS011;35512;56.312;101.728;2022-12-19T17:39:48;0.80;;;0.80;;
45128;SDS011;35512;56.312;101.728;2022-12-19T17:42:19;0.90;;;0.90;;
45128;SDS011;35512;56.312;101.728;2022-12-19T17:44:50;0.80;;;0.80;;
45128;SDS011;35512;56.312;101.728;2022-12-19T17:47:19;0.80;;;0.80;;
45128;SDS011;35512;56.312;101.728;2022-12-19T17:49:48;0.80;;;0.80;;
45128;SDS011;35512;56.312;101.728;2022-12-19T17:52:18;0.80;;;0.80;;
45128;SDS011;35512;56.312;101.728;2022-12-19T17:54:47;0.80;;;0.80;;
45128;SDS011;35512;56.312;101.728;2022-12-19T17:57:16;0.80;;;0.80;;
45128;SDS011;35512;56.312;101.728;2022-12-19T17:59:46;0.80;;;0.80;;
45128;SDS011;35512;56.312;101.728;2022-12-19T18:04:50;0.85;;;0.85;;